Time;durP1;ratioP1;P1;durP2;ratioP2;P2;SDS_P1;SDS_P2;PMS_P1;PMS_P2;Temp;Humidity;BMP_temperature;BMP_pressure;BME280_temperature;BME280_humidity;BME280_pressure;Samples;Min_cycle;Max_cycle;Signal;HPM_P1;HPM_P2
2021/12/01 00:03:10;;;;;;;10.20;8.45;;;;;;;1.65;85.93;98367.20;3417464;82;21233;-85
2021/12/01 00:08:02;;;;;;;8.08;7.10;;;;;;;1.61;85.89;98383.77;3378598;81;20992;-84
2021/12/01 00:12:54;;;;;;;11.63;8.23;;;;;;;1.57;85.70;98392.25;3432043;81;20958;-85
2021/12/01 00:17:47;;;;;;;10.28;7.83;;;;;;;1.52;85.55;98422.51;3432448;80;20978;-85
2021/12/01 00:22:41;;;;;;;9.65;7.72;;;;;;;1.52;85.68;98439.16;3384056;82;20984;-84
2021/12/01 00:27:32;;;;;;;8.95;7.70;;;;;;;1.49;85.62;98457.02;3415788;82;21170;-85
2021/12/01 00:32:25;;;;;;;9.88;7.72;;;;;;;1.45;85.49;98474.46;3324498;83;20974;-85
2021/12/01 00:37:17;;;;;;;10.98;8.35;;;;;;;1.43;85.59;98496.62;3375932;82;20942;-85
2021/12/01 00:42:08;;;;;;;10.23;7.72;;;;;;;1.40;85.59;98509.79;3373199;82;20958;-86
2021/12/01 00:47:05;;;;;;;10.55;8.40;;;;;;;1.38;85.44;98532.80;3409950;80;20938;-85
2021/12/01 00:51:55;;;;;;;9.68;8.68;;;;;;;1.37;85.45;98547.70;3391509;81;21994;-86
2021/12/01 00:56:49;;;;;;;10.43;8.90;;;;;;;1.36;85.46;98558.80;3356418;81;21104;-86
2021/12/01 01:01:40;;;;;;;9.30;7.35;;;;;;;1.35;85.37;98567.30;3419525;81;20946;-86
2021/12/01 01:06:32;;;;;;;11.43;8.58;;;;;;;1.33;85.32;98577.94;3331808;83;20959;-85
2021/12/01 01:16:33;;;;;;;11.57;9.88;;;;;;;1.31;85.32;98601.37;3482147;80;21098;-85
2021/12/01 01:21:28;;;;;;;13.85;9.30;;;;;;;1.28;85.17;98615.38;3439528;81;20987;-85
2021/12/01 01:26:22;;;;;;;11.83;10.08;;;;;;;1.27;85.33;98623.48;3433106;81;21512;-85
2021/12/01 01:31:14;;;;;;;12.23;9.10;;;;;;;1.26;85.33;98647.77;3439858;79;21397;-85
2021/12/01 01:36:05;;;;;;;11.40;9.30;;;;;;;1.26;85.22;98662.71;3427722;79;22032;-85
2021/12/01 01:40:56;;;;;;;11.83;8.73;;;;;;;1.27;85.22;98680.20;3489179;80;21523;-85
2021/12/01 01:45:54;;;;;;;12.05;9.63;;;;;;;1.26;85.22;98683.61;3415316;78;21057;-85
2021/12/01 01:50:45;;;;;;;13.55;10.45;;;;;;;1.27;85.22;98695.56;3463108;78;21089;-85
2021/12/01 01:55:40;;;;;;;11.75;10.28;;;;;;;1.25;85.28;98700.69;3484599;78;21508;-85
2021/12/01 02:00:38;;;;;;;14.05;10.48;;;;;;;1.24;85.19;98727.53;3472490;80;21493;-85
2021/12/01 02:05:26;;;;;;;14.58;11.35;;;;;;;1.25;85.28;98743.31;3455757;80;20925;-85
2021/12/01 02:10:17;;;;;;;11.63;9.85;;;;;;;1.26;85.19;98757.86;3404692;82;21018;-85
2021/12/01 02:15:09;;;;;;;13.45;10.28;;;;;;;1.23;85.16;98762.91;3364237;81;21531;-85
2021/12/01 02:20:00;;;;;;;14.35;10.08;;;;;;;1.24;85.23;98781.28;3349036;80;20892;-85
2021/12/01 02:24:52;;;;;;;11.85;9.38;;;;;;;1.24;85.18;98780.01;3333914;82;20940;-85
2021/12/01 02:29:43;;;;;;;13.68;10.45;;;;;;;1.21;85.02;98801.27;3369287;82;21163;-84
2021/12/01 02:34:39;;;;;;;12.25;9.18;;;;;;;1.20;85.20;98816.58;3387023;83;21252;-85
2021/12/01 02:39:30;;;;;;;13.95;10.55;;;;;;;1.17;85.23;98834.45;3352099;83;21468;-84
2021/12/01 02:44:23;;;;;;;14.35;10.88;;;;;;;1.18;85.04;98860.09;3350236;83;20967;-84
2021/12/01 02:49:21;;;;;;;13.30;9.35;;;;;;;1.16;85.07;98863.00;3318831;83;20987;-85
2021/12/01 02:54:12;;;;;;;14.50;11.60;;;;;;;1.16;85.10;98881.34;3371006;83;21199;-85
2021/12/01 02:59:05;;;;;;;15.08;10.85;;;;;;;1.15;85.03;98899.69;3349891;82;20971;-85
2021/12/01 03:04:00;;;;;;;13.83;11.22;;;;;;;1.15;84.99;98918.89;3324466;82;20963;-84
2021/12/01 03:08:51;;;;;;;16.00;11.08;;;;;;;1.14;84.79;98925.70;3351067;80;21482;-85
2021/12/01 03:13:43;;;;;;;15.72;11.50;;;;;;;1.14;84.90;98925.70;3432724;81;20947;-84
2021/12/01 03:18:34;;;;;;;15.93;12.10;;;;;;;1.13;84.83;98948.28;3449955;81;20998;-84
2021/12/01 03:23:27;;;;;;;14.20;11.20;;;;;;;1.14;84.83;98952.59;3427565;81;21006;-85
2021/12/01 03:28:19;;;;;;;12.63;9.23;;;;;;;1.17;84.84;98954.77;3435061;82;20976;-85
2021/12/01 03:33:16;;;;;;;14.85;11.12;;;;;;;1.17;84.66;98949.65;3408993;80;20979;-84
2021/12/01 03:38:08;;;;;;;13.83;11.23;;;;;;;1.13;84.56;98962.36;3446580;80;20980;-85
2021/12/01 03:42:59;;;;;;;13.18;10.10;;;;;;;1.12;84.38;98972.13;3440396;80;21537;-84
2021/12/01 03:47:51;;;;;;;12.37;9.93;;;;;;;1.10;84.43;98971.23;3414830;81;21612;-84
2021/12/01 03:52:43;;;;;;;12.30;10.08;;;;;;;0.98;84.04;98983.69;3389263;80;35759;-84
2021/12/01 03:57:35;;;;;;;13.95;10.25;;;;;;;0.86;84.39;98993.58;3498923;80;20988;-83
2021/12/01 04:02:26;;;;;;;13.68;10.35;;;;;;;0.75;84.58;98999.67;3468680;80;21035;-84
2021/12/01 04:07:17;;;;;;;11.28;9.03;;;;;;;0.61;84.51;99021.05;3471746;80;21702;-83
2021/12/01 04:12:09;;;;;;;13.18;10.25;;;;;;;0.48;84.59;99047.91;3386514;80;21458;-83
2021/12/01 04:17:00;;;;;;;13.58;9.55;;;;;;;0.38;84.60;99051.89;3451536;80;21437;-83
2021/12/01 04:21:51;;;;;;;12.37;9.98;;;;;;;0.30;84.47;99046.94;3455832;81;21020;-83
2021/12/01 04:26:43;;;;;;;14.65;10.38;;;;;;;0.21;84.52;99059.43;3396473;82;21007;-83
2021/12/01 04:31:37;;;;;;;14.33;11.22;;;;;;;0.09;84.60;99059.03;3465334;80;21013;-83
2021/12/01 04:36:32;;;;;;;13.72;8.88;;;;;;;-0.03;84.60;99055.28;3433868;82;20905;-83
2021/12/01 04:41:23;;;;;;;16.20;10.70;;;;;;;-0.14;84.54;99051.52;3364941;82;21541;-83
2021/12/01 04:46:20;;;;;;;15.63;11.03;;;;;;;-0.27;84.48;99057.02;3390848;80;20929;-82
2021/12/01 04:51:11;;;;;;;17.50;11.33;;;;;;;-0.37;84.54;99061.38;3389364;81;20988;-83
2021/12/01 04:56:02;;;;;;;15.23;10.45;;;;;;;-0.46;84.68;99079.37;3411712;79;21058;-82
2021/12/01 05:00:54;;;;;;;13.90;10.50;;;;;;;-0.50;84.88;99086.48;3414748;79;21007;-82
2021/12/01 05:05:45;;;;;;;15.72;10.72;;;;;;;-0.53;85.02;99095.30;3416034;79;20941;-83
2021/12/01 05:10:37;;;;;;;21.48;11.10;;;;;;;-0.53;84.94;99095.72;3462083;80;21434;-83
2021/12/01 05:15:28;;;;;;;15.88;11.48;;;;;;;-0.54;85.11;99108.87;3434250;82;21004;-82
2021/12/01 05:20:19;;;;;;;16.37;11.65;;;;;;;-0.57;85.01;99112.61;3368306;81;20976;-82
2021/12/01 05:25:11;;;;;;;13.15;9.58;;;;;;;-0.63;84.96;99111.09;3430355;80;21517;-83
2021/12/01 05:30:05;;;;;;;18.35;11.60;;;;;;;-0.66;84.88;99126.30;3448105;79;21454;-83
2021/12/01 05:34:56;;;;;;;19.52;12.85;;;;;;;-0.69;85.00;99132.59;3357076;81;21005;-83
2021/12/01 05:39:48;;;;;;;14.30;10.40;;;;;;;-0.73;85.02;99139.65;3431722;80;21046;-83
2021/12/01 05:44:40;;;;;;;17.32;11.40;;;;;;;-0.78;85.11;99139.08;3392182;80;20981;-83
2021/12/01 05:49:32;;;;;;;17.20;12.05;;;;;;;-0.81;85.20;99142.79;3416595;79;21515;-83
2021/12/01 05:54:23;;;;;;;18.07;12.05;;;;;;;-0.81;85.35;99138.96;3440531;80;20957;-82
2021/12/01 05:59:14;;;;;;;16.50;10.85;;;;;;;-0.85;85.21;99137.53;3490017;79;20910;-82
2021/12/01 06:04:06;;;;;;;16.10;10.43;;;;;;;-0.93;84.86;99146.19;3432444;80;21504;-82
2021/12/01 06:08:57;;;;;;;21.25;12.80;;;;;;;-1.01;84.76;99161.19;3453559;79;21114;-82
2021/12/01 06:13:51;;;;;;;17.30;11.57;;;;;;;-1.04;84.92;99169.13;3456747;79;20953;-82
2021/12/01 06:18:41;;;;;;;16.32;11.50;;;;;;;-1.06;85.12;99173.30;3441058;80;20953;-82
2021/12/01 06:23:32;;;;;;;16.30;11.40;;;;;;;-1.08;85.13;99175.79;3423519;80;25698;-82
2021/12/01 06:28:23;;;;;;;23.18;13.93;;;;;;;-1.08;85.11;99169.83;3466912;80;20929;-82
2021/12/01 06:33:14;;;;;;;18.52;13.03;;;;;;;-1.05;85.24;99170.81;3440681;80;21077;-82
2021/12/01 06:38:05;;;;;;;21.00;12.10;;;;;;;-1.04;85.03;99172.57;3415182;79;20935;-82
2021/12/01 06:42:57;;;;;;;18.30;12.37;;;;;;;-1.02;84.93;99176.42;3437743;79;21494;-82
2021/12/01 06:47:48;;;;;;;19.50;12.95;;;;;;;-1.00;85.05;99178.66;3378673;80;21111;-81
2021/12/01 06:52:39;;;;;;;18.55;13.38;;;;;;;-0.95;85.05;99188.61;3440049;80;20955;-81
2021/12/01 06:57:31;;;;;;;18.27;12.43;;;;;;;-0.87;85.04;99191.06;3429763;80;21174;-87
2021/12/01 07:02:22;;;;;;;20.60;14.58;;;;;;;-0.80;85.04;99205.79;3471833;80;21454;-77
2021/12/01 07:07:13;;;;;;;17.98;12.85;;;;;;;-0.67;85.04;99209.67;3450928;80;20980;-73
2021/12/01 07:12:05;;;;;;;17.25;12.07;;;;;;;-0.55;84.96;99216.94;3388965;81;21002;-78
2021/12/01 07:16:56;;;;;;;21.85;15.55;;;;;;;-0.43;84.91;99219.94;3403068;80;22163;-82
2021/12/01 07:21:48;;;;;;;19.95;14.43;;;;;;;-0.32;84.88;99215.61;3414008;80;21832;-81
2021/12/01 07:26:39;;;;;;;20.35;13.58;;;;;;;-0.24;84.87;99226.98;3370110;81;21006;-76
2021/12/01 07:31:30;;;;;;;18.48;12.80;;;;;;;-0.13;84.76;99216.73;3428800;81;21526;-74
2021/12/01 07:36:22;;;;;;;21.55;14.18;;;;;;;-0.05;84.60;99220.45;3357865;81;20974;-75
2021/12/01 07:41:13;;;;;;;21.95;15.48;;;;;;;0.06;84.66;99222.52;3388691;81;20935;-75
2021/12/01 07:46:05;;;;;;;21.25;14.45;;;;;;;0.19;84.66;99222.11;3424145;81;21029;-76
2021/12/01 07:50:56;;;;;;;21.07;14.55;;;;;;;0.31;84.41;99224.23;3412598;81;20923;-76
2021/12/01 07:55:48;;;;;;;21.25;14.68;;;;;;;0.40;84.25;99213.45;3423766;81;20956;-76
2021/12/01 08:00:39;;;;;;;21.42;15.15;;;;;;;0.38;84.20;99188.69;3391853;81;21030;-75
2021/12/01 08:05:32;;;;;;;21.75;14.85;;;;;;;0.31;84.20;99201.22;3420313;81;20975;-76
2021/12/01 08:10:23;;;;;;;22.35;15.23;;;;;;;0.46;83.94;99198.30;3471740;81;21156;-76
2021/12/01 08:15:15;;;;;;;21.40;14.75;;;;;;;0.63;83.82;99194.61;3504793;80;21021;-76
2021/12/01 08:20:07;;;;;;;20.52;15.00;;;;;;;0.62;83.88;99197.97;3435823;81;20927;-76
2021/12/01 08:24:59;;;;;;;17.70;13.25;;;;;;;0.60;83.83;99185.55;3416676;80;20974;-76
2021/12/01 08:29:50;;;;;;;20.88;14.78;;;;;;;0.60;83.96;99185.55;3497756;80;21004;-76
2021/12/01 08:34:44;;;;;;;21.37;14.47;;;;;;;0.66;83.74;99180.64;3423681;82;21994;-76
2021/12/01 08:39:36;;;;;;;19.12;13.70;;;;;;;0.83;83.55;99182.86;3381777;82;21454;-76
2021/12/01 08:44:27;;;;;;;19.37;14.15;;;;;;;0.91;83.47;99194.19;3380360;82;21594;-77
2021/12/01 08:49:18;;;;;;;17.98;13.38;;;;;;;0.94;83.51;99184.91;3429769;82;21002;-75
2021/12/01 08:54:13;;;;;;;19.40;14.47;;;;;;;1.01;83.38;99180.86;3389205;81;20957;-76
2021/12/01 08:59:02;;;;;;;18.40;12.75;;;;;;;1.05;83.48;99180.13;3472780;80;21170;-77
2021/12/01 09:03:53;;;;;;;20.70;14.45;;;;;;;1.41;83.10;99178.19;3446506;81;20929;-77
2021/12/01 09:08:44;;;;;;;21.27;15.18;;;;;;;1.76;82.69;99156.97;3458795;80;21015;-76
2021/12/01 09:13:36;;;;;;;18.73;14.87;;;;;;;1.87;82.40;99142.32;3479871;80;21061;-76
2021/12/01 09:18:29;;;;;;;17.02;13.48;;;;;;;2.10;82.13;99136.94;3472860;80;21100;-77
2021/12/01 09:23:21;;;;;;;18.30;13.90;;;;;;;2.18;82.00;99140.58;3436366;80;21201;-78
2021/12/01 09:28:17;;;;;;;14.83;12.20;;;;;;;2.43;81.75;99139.87;3499081;80;20996;-77
2021/12/01 09:33:09;;;;;;;16.32;13.35;;;;;;;2.57;81.53;99132.52;3448636;80;20944;-77
2021/12/01 09:38:00;;;;;;;16.05;13.40;;;;;;;2.66;81.40;99141.31;3492222;80;21448;-77
2021/12/01 09:42:55;;;;;;;19.98;14.03;;;;;;;2.74;81.03;99140.63;3492984;80;20993;-76
2021/12/01 09:47:48;;;;;;;17.82;14.10;;;;;;;2.81;81.06;99127.96;3461705;80;21770;-77
2021/12/01 09:52:40;;;;;;;18.57;13.70;;;;;;;2.74;80.98;99123.95;3452103;80;20964;-77
2021/12/01 09:57:31;;;;;;;19.37;12.53;;;;;;;2.61;81.17;99114.67;3446263;80;20967;-76
2021/12/01 10:02:25;;;;;;;16.82;12.98;;;;;;;2.46;81.30;99111.73;3471163;80;20997;-81
2021/12/01 10:07:29;;;;;;;17.20;13.35;;;;;;;2.34;81.58;99107.59;3460304;80;21003;-78
2021/12/01 10:12:20;;;;;;;13.60;11.45;;;;;;;2.33;81.74;99106.73;3406681;81;22012;-80
2021/12/01 10:17:11;;;;;;;16.97;13.38;;;;;;;2.46;81.59;99091.22;3453748;80;20955;-78
2021/12/01 10:22:09;;;;;;;16.77;13.08;;;;;;;2.66;81.43;99087.42;3487509;80;20988;-78
2021/12/01 10:27:06;;;;;;;15.13;12.23;;;;;;;2.84;81.31;99084.80;3445725;82;21032;-77
2021/12/01 10:32:01;;;;;;;17.37;13.10;;;;;;;2.87;81.27;99081.02;3460119;80;20949;-79
2021/12/01 10:37:14;;;;;;;19.87;14.75;;;;;;;2.84;81.43;99077.98;3449346;82;21149;-79
2021/12/01 10:42:09;;;;;;;20.68;14.35;;;;;;;2.79;81.10;99083.82;3425978;81;21014;-76
2021/12/01 10:47:10;;;;;;;16.62;14.13;;;;;;;2.62;81.43;99080.47;3456046;81;20922;-75
2021/12/01 10:52:03;;;;;;;20.82;14.85;;;;;;;2.48;81.12;99082.70;3422194;81;21522;-74
2021/12/01 10:57:18;;;;;;;20.65;14.83;;;;;;;2.36;81.35;99077.72;3482304;80;20975;-80
2021/12/01 11:02:12;;;;;;;20.35;14.85;;;;;;;2.36;81.25;99069.63;3465118;81;20970;-76
2021/12/01 11:07:08;;;;;;;22.48;16.15;;;;;;;2.46;81.51;99061.29;3444277;80;20994;-76
2021/12/01 11:12:03;;;;;;;20.57;15.37;;;;;;;2.69;81.05;99057.53;3469684;80;21412;-75
2021/12/01 11:16:57;;;;;;;18.12;14.18;;;;;;;2.96;80.92;99051.68;3479674;80;20908;-76
2021/12/01 11:21:47;;;;;;;18.23;14.30;;;;;;;3.26;80.45;99053.58;3457809;81;21743;-75
2021/12/01 11:26:43;;;;;;;14.35;11.70;;;;;;;3.29;80.25;99046.80;3435704;81;20976;-80
2021/12/01 11:31:42;;;;;;;16.57;12.93;;;;;;;3.25;80.04;99037.28;3461338;80;20961;-79
2021/12/01 11:36:40;;;;;;;13.35;10.82;;;;;;;3.13;79.92;99031.50;3490733;80;21497;-78
2021/12/01 11:41:33;;;;;;;14.53;11.78;;;;;;;2.99;79.79;99027.36;3482238;80;21437;-77
2021/12/01 11:46:25;;;;;;;15.63;10.95;;;;;;;2.86;80.12;99027.93;3454441;80;21467;-79
2021/12/01 11:51:30;;;;;;;13.90;11.10;;;;;;;2.84;80.14;99021.90;3461304;80;21078;-79
2021/12/01 11:56:32;;;;;;;13.10;11.48;;;;;;;2.73;79.88;99011.41;3505885;81;20902;-78
2021/12/01 12:01:32;;;;;;;13.90;9.58;;;;;;;2.62;80.08;99006.48;3462563;80;20959;-77
2021/12/01 12:06:28;;;;;;;12.85;9.05;;;;;;;2.53;80.17;98994.73;3468105;80;20959;-77
2021/12/01 12:11:53;;;;;;;12.43;9.83;;;;;;;2.48;80.37;98989.50;3465381;80;21532;-77
2021/12/01 12:17:13;;;;;;;15.32;10.25;;;;;;;2.43;80.22;98982.11;3471935;80;22037;-79
2021/12/01 12:22:04;;;;;;;15.08;9.90;;;;;;;2.39;80.67;98980.33;3426425;80;20959;-79
2021/12/01 12:27:02;;;;;;;14.43;11.00;;;;;;;2.34;80.72;98966.53;3459814;81;20969;-79
2021/12/01 12:31:56;;;;;;;;;;;;;;;2.34;80.77;98960.97;3456062;81;21059;-80
2021/12/01 12:36:57;;;;;;;14.78;10.35;;;;;;;2.34;80.62;98947.30;3483624;81;20253;-80
2021/12/01 12:42:05;;;;;;;15.25;10.50;;;;;;;2.35;80.90;98938.78;3443092;80;22024;-78
2021/12/01 12:47:06;;;;;;;12.35;10.23;;;;;;;2.33;80.78;98925.92;3465180;82;20988;-79
2021/12/01 12:52:03;;;;;;;11.63;8.90;;;;;;;2.34;80.74;98912.67;3458758;80;20992;-78
2021/12/01 12:56:54;;;;;;;18.63;10.70;;;;;;;2.40;80.86;98907.69;3458516;82;21058;-79
2021/12/01 13:01:49;;;;;;;12.43;9.93;;;;;;;2.45;80.73;98895.40;3453958;80;21512;-79
2021/12/01 13:06:40;;;;;;;11.38;9.35;;;;;;;2.53;80.76;98879.29;3457948;81;21794;-80
2021/12/01 13:11:31;;;;;;;11.70;9.23;;;;;;;2.56;80.74;98864.82;3404146;82;20893;-77
2021/12/01 13:16:23;;;;;;;12.28;9.10;;;;;;;2.58;80.62;98862.29;3413454;82;20987;-81
2021/12/01 13:21:24;;;;;;;14.98;11.00;;;;;;;2.55;80.45;98865.64;3410475;82;20942;-79
2021/12/01 13:26:29;;;;;;;13.08;10.60;;;;;;;2.46;80.47;98851.36;3348101;83;20957;-78
2021/12/01 13:31:26;;;;;;;11.10;8.33;;;;;;;2.43;80.63;98856.42;3353120;84;21098;-78
2021/12/01 13:36:18;;;;;;;13.72;11.38;;;;;;;2.38;80.63;98840.07;3364699;82;21018;-79
2021/12/01 13:41:16;;;;;;;17.45;10.68;;;;;;;2.34;80.74;98830.17;3361255;82;20952;-79
2021/12/01 13:46:07;;;;;;;13.00;11.00;;;;;;;2.33;80.77;98833.59;3424222;81;21000;-77
2021/12/01 13:51:12;;;;;;;11.88;9.75;;;;;;;2.29;80.81;98822.83;3371883;83;20892;-77
2021/12/01 13:56:20;;;;;;;17.30;13.40;;;;;;;2.26;81.05;98810.80;3350805;82;21178;-79
2021/12/01 14:01:16;;;;;;;;;;;;;;;2.19;81.11;98811.51;3441594;81;21023;-74
2021/12/01 14:06:11;;;;;;;16.07;11.97;;;;;;;2.12;81.53;98794.27;3397139;82;20526;-78
2021/12/01 14:11:24;;;;;;;14.98;10.38;;;;;;;2.04;81.72;98775.30;3306470;81;20898;-77
2021/12/01 14:16:19;;;;;;;11.95;10.10;;;;;;;1.95;81.95;98766.14;3402514;83;20975;-76
2021/12/01 14:21:15;;;;;;;17.37;12.25;;;;;;;1.84;82.13;98760.80;3417935;81;21085;-79
2021/12/01 14:26:06;;;;;;;14.33;11.08;;;;;;;1.76;82.44;98735.03;3451152;80;20960;-80
2021/12/01 14:31:00;;;;;;;15.00;11.33;;;;;;;1.71;82.66;98727.66;3381149;83;20972;-80
2021/12/01 14:36:02;;;;;;;17.12;10.63;;;;;;;1.65;82.80;98721.15;3449201;80;21020;-80
2021/12/01 14:40:56;;;;;;;11.83;8.70;;;;;;;1.61;83.05;98721.89;3455312;81;20960;-76
2021/12/01 14:45:47;;;;;;;16.02;12.50;;;;;;;1.55;83.19;98703.85;3401922;83;21152;-77
2021/12/01 14:50:42;;;;;;;14.93;12.13;;;;;;;1.52;83.27;98693.11;3420822;83;20947;-77
2021/12/01 14:55:37;;;;;;;15.68;12.35;;;;;;;1.49;83.35;98681.55;3369531;83;20962;-76
2021/12/01 15:00:32;;;;;;;17.87;11.75;;;;;;;1.46;83.54;98668.66;3374456;80;20945;-81
2021/12/01 15:05:26;;;;;;;15.88;10.60;;;;;;;1.39;83.55;98657.42;3471381;81;21021;-80
2021/12/01 15:10:25;;;;;;;12.82;8.48;;;;;;;1.36;83.78;98649.70;3401613;82;21917;-80
2021/12/01 15:15:30;;;;;;;14.20;10.45;;;;;;;1.36;84.04;98636.90;3460352;81;21453;-80
2021/12/01 15:20:21;;;;;;;14.00;10.85;;;;;;;1.31;83.90;98625.70;3453257;81;21659;-79
2021/12/01 15:25:12;;;;;;;16.10;10.13;;;;;;;1.28;83.99;98628.19;3369629;82;21023;-80
2021/12/01 15:30:05;;;;;;;15.63;10.95;;;;;;;1.27;84.06;98612.36;3404754;81;22257;-79
2021/12/01 15:34:55;;;;;;;13.58;9.50;;;;;;;1.22;84.16;98610.15;3466637;81;21453;-77
2021/12/01 15:39:47;;;;;;;10.58;9.13;;;;;;;1.22;84.22;98598.63;3417634;81;20971;-79
2021/12/01 15:44:38;;;;;;;12.00;9.08;;;;;;;1.19;84.20;98599.84;3454191;81;21532;-80
2021/12/01 15:49:30;;;;;;;11.40;7.67;;;;;;;1.16;84.28;98584.41;3419082;81;21062;-79
2021/12/01 15:54:21;;;;;;;12.45;8.43;;;;;;;1.13;84.46;98583.52;3419322;82;20922;-79
2021/12/01 15:59:14;;;;;;;12.90;9.25;;;;;;;1.14;84.55;98580.53;3450745;80;21157;-79
2021/12/01 16:04:05;;;;;;;11.68;8.18;;;;;;;1.14;84.70;98569.02;3406623;81;20954;-79
2021/12/01 16:08:57;;;;;;;12.75;9.75;;;;;;;1.08;84.61;98551.84;3411914;81;21069;-79
2021/12/01 16:13:50;;;;;;;11.30;9.33;;;;;;;1.09;84.81;98542.06;3444673;81;20913;-79
2021/12/01 16:18:42;;;;;;;14.55;10.48;;;;;;;1.07;84.83;98522.37;3450587;80;20952;-80
2021/12/01 16:23:36;;;;;;;15.20;9.85;;;;;;;1.08;84.92;98510.05;3474628;80;21164;-79
2021/12/01 16:28:26;;;;;;;16.12;10.85;;;;;;;1.08;85.00;98495.53;3472400;80;21036;-78
2021/12/01 16:33:18;;;;;;;16.95;10.63;;;;;;;1.07;85.06;98502.79;3413716;81;21123;-79
2021/12/01 16:38:12;;;;;;;15.10;10.60;;;;;;;1.06;85.04;98498.91;3412754;80;21448;-77
2021/12/01 16:43:08;;;;;;;17.32;11.97;;;;;;;1.04;85.22;98502.72;3456544;82;20931;-80
2021/12/01 16:48:00;;;;;;;14.40;12.03;;;;;;;1.04;85.33;98488.64;3493632;80;21978;-75
2021/12/01 16:52:53;;;;;;;19.02;14.20;;;;;;;1.07;85.67;98481.03;3411014;83;21271;-80
2021/12/01 16:57:45;;;;;;;20.00;13.75;;;;;;;1.07;85.50;98480.15;3516987;80;20856;-75
2021/12/01 17:02:40;;;;;;;18.15;13.50;;;;;;;1.06;85.53;98469.05;3478321;80;20919;-80
2021/12/01 17:12:32;;;;;;;20.15;13.95;;;;;;;1.12;85.81;98451.24;3468678;80;21311;-80
2021/12/01 17:17:24;;;;;;;18.48;12.68;;;;;;;1.16;85.92;98432.96;3484539;80;21041;-80
2021/12/01 17:22:15;;;;;;;20.02;14.43;;;;;;;1.18;85.91;98424.03;3393052;82;20943;-80
2021/12/01 17:27:19;;;;;;;20.80;16.07;;;;;;;1.19;86.06;98417.67;3449917;81;21516;-79
2021/12/01 17:32:17;;;;;;;23.67;15.78;;;;;;;1.21;86.00;98415.99;3419844;81;21023;-78
2021/12/01 17:37:05;;;;;;;;;;;;;;;1.20;86.01;98403.16;3375043;82;20949;-80
2021/12/01 17:41:58;;;;;;;22.07;16.52;;;;;;;1.21;86.26;98401.06;3403576;82;20448;-80
2021/12/01 17:46:49;;;;;;;19.67;15.08;;;;;;;1.22;86.18;98382.32;3408513;81;20951;-80
2021/12/01 17:51:41;;;;;;;19.23;14.98;;;;;;;1.23;86.18;98381.47;3426490;81;20952;-80
2021/12/01 17:56:32;;;;;;;22.80;16.80;;;;;;;1.22;86.22;98351.17;3390804;81;22394;-79
2021/12/01 18:01:24;;;;;;;20.62;15.60;;;;;;;1.23;86.33;98359.28;3377767;82;20975;-78
2021/12/01 18:06:17;;;;;;;22.87;16.23;;;;;;;1.26;86.33;98363.61;3452929;82;20968;-77
2021/12/01 18:11:08;;;;;;;19.70;14.07;;;;;;;1.29;86.32;98354.70;3457985;80;21007;-76
2021/12/01 18:16:01;;;;;;;24.50;18.27;;;;;;;1.29;86.52;98338.91;3401544;80;20984;-77
2021/12/01 18:20:52;;;;;;;24.27;16.95;;;;;;;1.31;86.50;98330.84;3458595;80;21581;-77
2021/12/01 18:25:43;;;;;;;20.90;15.50;;;;;;;1.35;86.56;98325.34;3478605;80;21143;-77
2021/12/01 18:30:34;;;;;;;18.50;14.93;;;;;;;1.38;86.65;98313.88;3428234;80;21470;-77
2021/12/01 18:35:25;;;;;;;23.83;17.73;;;;;;;1.43;86.71;98325.05;3429462;82;21582;-76
2021/12/01 18:40:19;;;;;;;19.70;15.60;;;;;;;1.47;86.79;98314.01;3482206;80;20953;-78
2021/12/01 18:45:10;;;;;;;22.13;16.07;;;;;;;1.50;86.87;98306.38;3486758;80;20928;-78
2021/12/01 18:50:02;;;;;;;24.32;15.95;;;;;;;1.56;86.99;98291.91;3449597;80;21211;-78
2021/12/01 18:54:55;;;;;;;22.00;15.88;;;;;;;1.60;87.16;98281.74;3432716;80;20969;-78
2021/12/01 18:59:46;;;;;;;20.52;15.32;;;;;;;1.65;87.15;98267.73;3459323;80;21014;-80
2021/12/01 19:04:37;;;;;;;21.07;15.30;;;;;;;1.70;87.22;98257.13;3432338;80;21020;-81
2021/12/01 19:09:29;;;;;;;23.62;17.32;;;;;;;1.72;87.22;98242.63;3433879;80;20965;-82
2021/12/01 19:14:20;;;;;;;24.98;18.67;;;;;;;1.76;87.36;98251.22;3462666;81;21148;-82
2021/12/01 19:19:12;;;;;;;23.05;16.60;;;;;;;1.82;87.41;98243.59;3327791;82;20927;-82
2021/12/01 19:24:04;;;;;;;24.52;18.20;;;;;;;1.85;87.62;98219.30;3367311;81;21572;-85
2021/12/01 19:28:56;;;;;;;27.73;19.23;;;;;;;1.90;87.57;98212.09;3393332;82;20952;-83
2021/12/01 19:33:47;;;;;;;21.75;17.62;;;;;;;1.96;87.65;98215.14;3374245;83;21516;-81
2021/12/01 19:38:41;;;;;;;28.20;20.12;;;;;;;2.01;87.72;98199.83;3401140;82;21946;-81
2021/12/01 19:43:33;;;;;;;25.50;17.35;;;;;;;2.06;87.91;98198.19;3398038;82;22234;-82
2021/12/01 19:48:25;;;;;;;26.15;19.07;;;;;;;2.14;87.94;98186.72;3398744;81;21605;-81
2021/12/01 19:53:19;;;;;;;24.30;17.15;;;;;;;2.17;87.89;98170.09;3453670;81;20987;-83
2021/12/01 19:58:11;;;;;;;26.17;19.75;;;;;;;2.21;87.98;98164.99;3423849;82;21485;-80
2021/12/01 20:03:03;;;;;;;29.18;19.23;;;;;;;2.25;88.02;98155.63;3360905;81;21536;-78
2021/12/01 20:07:56;;;;;;;27.77;19.73;;;;;;;2.29;88.10;98156.96;3361185;83;20960;-79
2021/12/01 20:12:54;;;;;;;26.85;19.65;;;;;;;2.34;88.21;98153.57;3402311;81;20998;-80
2021/12/01 20:17:47;;;;;;;27.10;19.00;;;;;;;2.38;88.35;98142.08;3435744;81;20913;-80
2021/12/01 20:22:47;;;;;;;25.90;17.10;;;;;;;2.44;88.35;98146.40;3333273;81;21630;-80
2021/12/01 20:27:34;;;;;;;26.23;19.50;;;;;;;2.50;88.44;98134.89;3471125;81;21050;-80
2021/12/01 20:32:26;;;;;;;26.45;18.75;;;;;;;2.54;88.50;98126.40;3390149;82;20999;-82
2021/12/01 20:37:18;;;;;;;26.48;18.92;;;;;;;2.58;88.67;98131.97;3380505;82;20917;-80
2021/12/01 20:42:12;;;;;;;26.17;18.55;;;;;;;2.65;88.96;98117.06;3389991;82;21051;-81
2021/12/01 20:47:27;;;;;;;19.65;13.48;;;;;;;2.73;88.88;98107.27;3413376;82;20983;-82
2021/12/01 21:02:10;;;;;;;28.15;18.87;;;;;;;2.98;89.11;98103.14;3448810;81;21492;-79
2021/12/01 21:07:03;;;;;;;25.35;17.27;;;;;;;3.02;89.01;98098.45;3410008;82;20981;-81
2021/12/01 21:11:57;;;;;;;24.15;17.75;;;;;;;3.03;88.96;98099.75;3493531;81;20947;-79
2021/12/01 21:16:49;;;;;;;23.83;16.97;;;;;;;3.07;88.96;98094.64;3422965;81;21936;-81
2021/12/01 21:21:43;;;;;;;25.23;18.70;;;;;;;3.09;89.00;98098.06;3368010;81;21458;-81
2021/12/01 21:26:36;;;;;;;26.80;18.23;;;;;;;3.12;88.98;98101.94;3417387;81;21006;-82
2021/12/01 21:31:28;;;;;;;27.02;18.40;;;;;;;3.13;89.03;98090.80;3406928;81;21327;-83
2021/12/01 21:36:24;;;;;;;28.60;20.50;;;;;;;3.17;89.18;98088.70;3434982;81;21138;-80
2021/12/01 21:41:17;;;;;;;28.15;19.40;;;;;;;3.20;89.17;98084.44;3309542;83;21613;-83
2021/12/01 21:46:08;;;;;;;29.10;19.02;;;;;;;3.22;89.18;98078.03;3343341;83;21757;-77
2021/12/01 21:51:09;;;;;;;32.78;22.48;;;;;;;3.30;89.27;98075.05;3342646;83;21061;-78
2021/12/01 21:56:03;;;;;;;28.95;18.77;;;;;;;3.30;89.27;98075.05;3371760;82;21597;-79
2021/12/01 22:00:54;;;;;;;26.17;18.62;;;;;;;3.33;89.38;98060.94;3419389;81;21067;-79
2021/12/01 22:05:46;;;;;;;27.90;18.73;;;;;;;3.35;89.46;98055.38;3350959;85;21663;-80
2021/12/01 22:10:38;;;;;;;29.20;20.15;;;;;;;3.41;89.78;98046.83;3404203;82;20930;-79
2021/12/01 22:15:29;;;;;;;29.67;20.23;;;;;;;3.44;89.49;98036.13;3381283;80;20951;-78
2021/12/01 22:20:23;;;;;;;31.17;21.20;;;;;;;3.47;89.50;98033.13;3434172;80;20940;-80
2021/12/01 22:25:18;;;;;;;25.25;18.23;;;;;;;3.50;89.57;98026.30;3393018;82;20972;-79
2021/12/01 22:30:13;;;;;;;30.45;21.55;;;;;;;3.51;89.63;98024.17;3420600;81;21048;-80
2021/12/01 22:35:06;;;;;;;29.48;20.77;;;;;;;3.52;89.57;98020.73;3440673;80;20957;-79
2021/12/01 22:39:58;;;;;;;27.58;18.60;;;;;;;3.54;89.58;98009.17;3408403;80;20974;-79
2021/12/01 22:44:50;;;;;;;24.98;18.05;;;;;;;3.54;89.66;97999.78;3418383;83;20955;-78
2021/12/01 22:49:42;;;;;;;31.23;22.60;;;;;;;3.56;89.74;98000.63;3424573;81;20947;-79
2021/12/01 22:54:34;;;;;;;27.30;18.65;;;;;;;3.59;89.78;97984.34;3444570;80;21082;-80
2021/12/01 22:59:28;;;;;;;26.90;18.80;;;;;;;3.61;89.75;97974.92;3393972;82;22067;-79
2021/12/01 23:04:19;;;;;;;30.37;21.75;;;;;;;3.64;89.85;97964.66;3443720;82;21341;-79
2021/12/01 23:09:10;;;;;;;29.72;20.48;;;;;;;3.66;89.81;97964.23;3428194;82;20951;-79